Time;durP1;ratioP1;P1;durP2;ratioP2;P2;SDS_P1;SDS_P2;PMS_P1;PMS_P2;Temp;Humidity;BMP_temperature;BMP_pressure;BME280_temperature;BME280_humidity;BME280_pressure;Samples;Min_cycle;Max_cycle;Signal;HPM_P1;HPM_P2
2024/04/12 00:00:21;;;;;;;7.40;6.80;;;;;;;16.02;100.00;103100.72;5679682;26;20456;-76
2024/04/12 00:02:53;;;;;;;6.57;5.97;;;;;;;16.02;100.00;103098.94;5682856;26;20559;-77
2024/04/12 00:05:25;;;;;;;6.55;5.95;;;;;;;16.04;100.00;103099.66;5672716;26;20415;-75
2024/04/12 00:08:05;;;;;;;5.60;5.10;;;;;;;15.96;100.00;103093.25;5681869;26;20095;-75
2024/04/12 00:10:37;;;;;;;5.80;5.30;;;;;;;16.00;100.00;103097.38;5687232;26;20008;-77
2024/04/12 00:13:10;;;;;;;5.15;4.75;;;;;;;15.99;100.00;103087.75;5681870;26;20724;-76
2024/04/12 00:15:42;;;;;;;;;;;;;;;16.78;100.00;103089.81;5691063;26;20034;-76
2024/04/12 00:18:14;;;;;;;4.25;3.72;;;;;;;16.07;100.00;103081.91;5681682;26;19930;-77
2024/04/12 00:20:47;;;;;;;3.83;3.50;;;;;;;16.04;100.00;103089.09;5677588;26;20028;-77
2024/04/12 00:23:19;;;;;;;;;;;;;;;16.78;100.00;103089.81;5673742;26;20461;-78
2024/04/12 00:25:51;;;;;;;3.80;3.50;;;;;;;16.05;100.00;103074.91;5674373;26;19931;-76
2024/04/12 00:28:23;;;;;;;3.75;3.25;;;;;;;16.01;100.00;103069.97;5645823;26;20002;-77
2024/04/12 00:30:59;;;;;;;3.53;3.22;;;;;;;16.03;100.00;103082.13;5653280;26;20046;-75
2024/04/12 00:33:35;;;;;;;3.42;3.13;;;;;;;16.00;100.00;103069.13;5677649;26;20026;-75
2024/04/12 00:36:09;;;;;;;4.43;3.25;;;;;;;16.04;100.00;103080.31;5674100;26;20002;-75
2024/04/12 00:38:41;;;;;;;4.05;3.20;;;;;;;16.03;100.00;103082.13;5672564;26;20006;-77
2024/04/12 00:41:19;;;;;;;3.70;3.40;;;;;;;16.07;100.00;103069.53;5642244;26;19998;-75
2024/04/12 00:43:52;;;;;;;3.70;3.40;;;;;;;16.00;100.00;103055.91;5674252;26;20034;-75
2024/04/12 00:46:24;;;;;;;4.70;4.30;;;;;;;16.04;100.00;103061.81;5682233;26;19999;-78
2024/04/12 00:49:00;;;;;;;3.90;3.60;;;;;;;16.06;100.00;103062.53;5681121;26;20882;-75
2024/04/12 00:51:33;;;;;;;4.10;3.80;;;;;;;16.01;100.00;103056.75;5677453;26;20022;-76
2024/04/12 00:54:06;;;;;;;4.80;4.40;;;;;;;16.00;100.00;103055.91;5679162;26;20013;-77
2024/04/12 00:56:38;;;;;;;5.03;4.00;;;;;;;16.03;100.00;103050.41;5674488;26;20017;-76
2024/04/12 00:59:10;;;;;;;4.70;4.30;;;;;;;16.02;100.00;103042.56;5681144;26;20032;-78
2024/04/12 01:01:42;;;;;;;4.22;3.90;;;;;;;16.02;100.00;103046.06;5654097;26;19998;-76
2024/04/12 01:04:19;;;;;;;4.55;3.85;;;;;;;16.05;100.00;103060.84;5691984;26;20013;-78
2024/04/12 01:06:51;;;;;;;5.07;4.07;;;;;;;16.01;100.00;103048.81;5678748;26;19999;-75
2024/04/12 01:09:23;;;;;;;4.45;4.05;;;;;;;15.84;100.00;103022.78;5654271;26;20289;-78
2024/04/12 01:11:59;;;;;;;4.43;4.05;;;;;;;15.96;100.00;103045.66;5686211;26;20022;-76
2024/04/12 01:14:33;;;;;;;4.32;3.95;;;;;;;15.95;100.00;103036.06;5682583;26;20024;-76
2024/04/12 01:17:09;;;;;;;4.60;4.20;;;;;;;15.89;100.00;103015.34;5688022;26;20077;-76
2024/04/12 01:19:41;;;;;;;4.03;3.70;;;;;;;15.89;100.00;103024.13;5682507;26;20693;-76
2024/04/12 01:22:14;;;;;;;4.32;3.85;;;;;;;15.91;100.00;103031.91;5683354;26;20009;-78
2024/04/12 01:24:46;;;;;;;4.30;3.40;;;;;;;15.91;100.00;103016.06;5687994;26;20393;-77
2024/04/12 01:27:18;;;;;;;3.72;3.17;;;;;;;15.86;100.00;103013.75;5685239;26;20014;-75
2024/04/12 01:29:50;;;;;;;2.80;2.50;;;;;;;15.86;100.00;103005.81;5688135;26;20103;-76
2024/04/12 01:32:24;;;;;;;3.30;2.53;;;;;;;15.91;100.00;103000.19;5684310;26;20335;-76
2024/04/12 01:34:56;;;;;;;2.13;1.88;;;;;;;15.80;100.00;102995.72;5682673;26;20024;-76
2024/04/12 01:37:30;;;;;;;2.80;1.70;;;;;;;15.82;100.00;103002.56;5680444;26;20022;-75
2024/04/12 01:40:03;;;;;;;2.25;1.40;;;;;;;15.81;100.00;103000.88;5684020;26;20499;-75
2024/04/12 01:42:37;;;;;;;1.77;1.48;;;;;;;15.81;100.00;102990.31;5678303;26;20279;-76
2024/04/12 01:45:26;;;;;;;1.67;1.20;;;;;;;15.82;100.00;102985.88;5674519;26;20395;-76
2024/04/12 01:47:58;;;;;;;1.60;1.08;;;;;;;15.81;100.00;102985.03;5686115;26;20870;-75
2024/04/12 01:50:31;;;;;;;1.63;1.17;;;;;;;15.81;100.00;102995.59;5684667;26;20002;-75
2024/04/12 01:53:09;;;;;;;2.10;1.80;;;;;;;15.82;100.00;102997.28;5683549;26;20109;-75
2024/04/12 01:55:45;;;;;;;2.17;1.42;;;;;;;15.81;100.00;103002.69;5681770;26;20047;-76
2024/04/12 01:58:20;;;;;;;1.88;1.20;;;;;;;15.81;100.00;102998.25;5652242;26;20061;-73
2024/04/12 02:00:52;;;;;;;2.17;1.20;;;;;;;15.85;100.00;103000.66;5691651;26;20041;-76
2024/04/12 02:03:29;;;;;;;1.33;1.02;;;;;;;15.79;100.00;103001.94;5688806;26;19998;-73
2024/04/12 02:06:04;;;;;;;1.70;1.35;;;;;;;15.90;100.00;103001.16;5682721;26;20459;-74
2024/04/12 02:08:38;;;;;;;1.77;1.00;;;;;;;15.89;100.00;102996.84;5650372;26;20347;-75
2024/04/12 02:11:11;;;;;;;2.00;1.17;;;;;;;15.88;100.00;103011.84;5690542;26;20030;-73
2024/04/12 02:13:43;;;;;;;1.58;0.95;;;;;;;15.92;100.00;103013.31;5689087;26;20117;-76
2024/04/12 02:16:15;;;;;;;1.23;0.80;;;;;;;15.80;100.00;103012.41;5685308;26;20557;-74
2024/04/12 02:18:47;;;;;;;1.63;0.88;;;;;;;15.85;100.00;103012.06;5689589;26;20062;-76
2024/04/12 02:21:19;;;;;;;1.40;0.93;;;;;;;15.85;100.00;103005.94;5672831;26;20051;-78
2024/04/12 02:23:52;;;;;;;1.38;0.90;;;;;;;15.81;100.00;103008.81;5680078;26;20616;-77
2024/04/12 02:26:25;;;;;;;1.60;1.23;;;;;;;15.85;100.00;103019.16;5682622;26;20002;-78
2024/04/12 02:29:01;;;;;;;1.60;1.10;;;;;;;15.85;100.00;103014.72;5636165;26;20002;-76
2024/04/12 02:31:35;;;;;;;1.85;1.20;;;;;;;15.82;100.00;103013.13;5678110;26;20006;-76
2024/04/12 02:34:09;;;;;;;1.33;1.10;;;;;;;15.77;100.00;102999.41;5678603;26;20009;-76
2024/04/12 02:36:40;;;;;;;2.13;1.10;;;;;;;15.84;100.00;103004.28;5678595;26;20002;-72
2024/04/12 02:39:12;;;;;;;1.40;0.93;;;;;;;15.84;100.00;103014.84;5650013;26;20016;-75
2024/04/12 02:41:45;;;;;;;1.60;0.90;;;;;;;15.82;100.00;103007.00;5684647;26;20878;-75
2024/04/12 02:44:17;;;;;;;1.85;0.98;;;;;;;15.87;100.00;103017.25;5683936;26;19998;-75
2024/04/12 02:46:49;;;;;;;1.63;0.95;;;;;;;15.88;100.00;103011.03;5688073;26;20035;-75
2024/04/12 02:49:21;;;;;;;1.63;0.80;;;;;;;15.87;100.00;103010.16;5673377;26;20017;-76
2024/04/12 02:51:53;;;;;;;1.75;1.00;;;;;;;15.84;100.00;103010.41;5681754;26;20386;-75
2024/04/12 02:54:27;;;;;;;1.10;0.75;;;;;;;15.90;100.00;103009.09;5681559;26;20014;-76
2024/04/12 02:56:59;;;;;;;1.52;0.93;;;;;;;15.81;100.00;102998.25;5686148;26;20013;-78
2024/04/12 02:59:32;;;;;;;1.38;0.80;;;;;;;15.79;100.00;102992.19;5689847;26;20042;-75
2024/04/12 03:02:04;;;;;;;1.77;1.08;;;;;;;15.86;100.00;102992.59;5683756;26;20002;-73
2024/04/12 03:04:38;;;;;;;2.17;0.95;;;;;;;15.87;100.00;102991.63;5677842;26;20034;-76
2024/04/12 03:07:11;;;;;;;1.52;0.93;;;;;;;15.74;100.00;102994.34;5683149;26;20017;-78
2024/04/12 03:09:43;;;;;;;2.70;1.30;;;;;;;15.77;100.00;102994.13;5656027;26;20017;-78
2024/04/12 03:12:16;;;;;;;2.50;1.50;;;;;;;15.88;100.00;103006.56;5655064;26;20038;-76
2024/04/12 03:14:47;;;;;;;2.13;1.65;;;;;;;15.86;100.00;103002.34;5688368;26;20344;-76
2024/04/12 03:17:21;;;;;;;2.28;1.52;;;;;;;15.81;100.00;102987.66;5682257;26;20017;-75
2024/04/12 03:19:54;;;;;;;2.38;1.35;;;;;;;15.85;100.00;102987.44;5681665;26;20021;-75
2024/04/12 03:22:27;;;;;;;2.15;1.67;;;;;;;15.85;100.00;102976.88;5672676;26;20002;-76
2024/04/12 03:24:59;;;;;;;2.67;1.85;;;;;;;15.89;100.00;102992.38;5653544;26;20016;-75
2024/04/12 03:27:32;;;;;;;2.40;2.05;;;;;;;15.89;100.00;102987.09;5680778;26;20019;-74
2024/04/12 03:30:13;;;;;;;3.42;2.22;;;;;;;15.92;100.00;102978.94;5684374;26;20038;-75
2024/04/12 03:32:46;;;;;;;3.13;2.20;;;;;;;15.88;100.00;102976.66;5642404;26;20030;-75
2024/04/12 03:35:20;;;;;;;2.55;2.10;;;;;;;15.92;100.00;102975.47;5688510;26;20039;-76
2024/04/12 03:40:45;;;;;;;2.35;2.08;;;;;;;15.93;100.00;102977.16;5686471;26;20030;-79
2024/04/12 03:43:21;;;;;;;3.25;2.20;;;;;;;15.92;100.00;102978.13;5658295;26;20206;-79
2024/04/12 03:45:59;;;;;;;3.10;2.33;;;;;;;15.97;100.00;102973.31;5684186;26;20501;-77
2024/04/12 03:48:33;;;;;;;4.82;2.70;;;;;;;15.92;100.00;102968.38;5689000;26;20048;-77
2024/04/12 03:51:06;;;;;;;4.57;2.70;;;;;;;15.93;100.00;102974.50;5690224;26;20049;-77
2024/04/12 03:53:38;;;;;;;;;;;;;;;16.74;100.00;102969.25;5685631;26;20026;-75
2024/04/12 03:56:12;;;;;;;3.35;3.00;;;;;;;16.01;100.00;102972.97;5676936;26;20294;-73
2024/04/12 03:58:45;;;;;;;3.92;3.22;;;;;;;15.97;100.00;102968.88;5687370;26;20029;-78
2024/04/12 04:01:18;;;;;;;3.67;2.83;;;;;;;15.96;100.00;102971.63;5691418;26;20013;-76
2024/04/12 04:03:57;;;;;;;3.35;2.80;;;;;;;15.95;100.00;102976.09;5686033;26;20014;-78
2024/04/12 04:06:36;;;;;;;4.20;3.03;;;;;;;15.95;100.00;102980.53;5690526;26;20058;-78
2024/04/12 04:09:11;;;;;;;4.32;3.28;;;;;;;15.93;100.00;102971.84;5659223;26;21126;-77
2024/04/12 04:11:43;;;;;;;3.95;3.40;;;;;;;15.96;100.00;102979.56;5686835;26;20373;-78
2024/04/12 04:14:19;;;;;;;4.63;3.80;;;;;;;15.92;100.00;102964.91;5691301;26;20017;-78
2024/04/12 04:16:56;;;;;;;5.97;4.30;;;;;;;16.06;100.00;102972.63;5648557;26;20049;-78
2024/04/12 04:19:39;;;;;;;4.90;3.95;;;;;;;15.95;100.00;102954.94;5676355;26;20000;-76
2024/04/12 04:25:07;;;;;;;7.07;5.68;;;;;;;15.98;100.00;102962.63;5681542;26;20046;-78
2024/04/12 04:27:39;;;;;;;5.45;4.50;;;;;;;15.91;100.00;102952.59;5687539;26;20016;-75
2024/04/12 04:30:17;;;;;;;6.72;5.13;;;;;;;15.93;100.00;102950.72;5643209;26;20602;-79
2024/04/12 04:32:49;;;;;;;8.10;5.68;;;;;;;15.90;100.00;102956.22;5641862;26;20042;-77
2024/04/12 04:35:27;;;;;;;6.75;5.10;;;;;;;15.92;100.00;102959.59;5684674;26;19998;-78
2024/04/12 04:37:58;;;;;;;7.72;5.53;;;;;;;15.92;100.00;102952.50;5650067;26;20016;-75
2024/04/12 04:40:35;;;;;;;6.30;5.13;;;;;;;15.89;100.00;102954.53;5691130;26;20006;-75
2024/04/12 04:43:08;;;;;;;7.68;5.70;;;;;;;15.90;100.00;102959.69;5690541;26;20041;-78
2024/04/12 04:45:39;;;;;;;6.45;5.68;;;;;;;15.94;100.00;102965.59;5686401;26;20031;-75
2024/04/12 04:48:11;;;;;;;6.93;5.80;;;;;;;15.95;100.00;102964.69;5687736;26;20445;-75
2024/04/12 04:50:43;;;;;;;6.93;5.78;;;;;;;15.93;100.00;102964.78;5685086;26;20007;-76
2024/04/12 04:53:15;;;;;;;6.80;5.82;;;;;;;15.95;100.00;102959.38;5689238;26;20021;-74
2024/04/12 04:55:49;;;;;;;7.20;6.03;;;;;;;15.85;100.00;102958.38;5690456;26;19998;-76
2024/04/12 04:58:21;;;;;;;6.78;5.88;;;;;;;15.89;100.00;102965.13;5690810;26;20484;-76
2024/04/12 05:00:53;;;;;;;7.53;6.13;;;;;;;15.92;100.00;102957.81;5682507;26;20006;-75
2024/04/12 05:03:25;;;;;;;7.88;6.55;;;;;;;15.84;100.00;102954.06;5685297;26;20009;-76
2024/04/12 05:05:57;;;;;;;7.68;6.90;;;;;;;15.88;100.00;102964.28;5687602;26;20443;-76
2024/04/12 05:08:35;;;;;;;8.48;6.32;;;;;;;15.92;100.00;102963.09;5689458;26;20541;-76
2024/04/12 05:11:07;;;;;;;8.40;6.55;;;;;;;15.87;100.00;102962.56;5655659;26;20066;-74
2024/04/12 05:13:39;;;;;;;8.60;6.70;;;;;;;15.81;100.00;102958.59;5683873;26;20017;-76
2024/04/12 05:16:11;;;;;;;7.90;6.80;;;;;;;15.90;100.00;102972.09;5692361;26;20457;-76
2024/04/12 05:18:48;;;;;;;8.73;7.13;;;;;;;15.87;100.00;102964.38;5688188;26;20003;-76
2024/04/12 05:21:20;;;;;;;8.18;7.30;;;;;;;15.78;100.00;102956.16;5686322;26;20030;-76
2024/04/12 05:23:52;;;;;;;9.43;7.47;;;;;;;15.87;100.00;102962.56;5682211;26;20027;-76
2024/04/12 05:26:25;;;;;;;9.10;7.30;;;;;;;15.82;100.00;102954.97;5644457;26;20012;-76
2024/04/12 05:28:57;;;;;;;9.00;7.32;;;;;;;15.86;100.00;102955.59;5687167;26;20011;-74
2024/04/12 05:31:30;;;;;;;8.88;7.07;;;;;;;15.91;100.00;102964.06;5690250;26;21435;-76
2024/04/12 05:34:04;;;;;;;8.40;7.38;;;;;;;15.95;100.00;102965.50;5653221;26;20017;-76
2024/04/12 05:36:36;;;;;;;8.27;7.30;;;;;;;15.94;100.00;102968.25;5688225;26;20011;-76
2024/04/12 05:39:11;;;;;;;8.88;7.50;;;;;;;15.97;100.00;102968.88;5690550;26;20009;-77
2024/04/12 05:41:44;;;;;;;9.02;7.55;;;;;;;16.00;100.00;102973.94;5681311;26;20777;-76
2024/04/12 05:44:18;;;;;;;8.88;7.50;;;;;;;16.01;100.00;102964.19;5690521;26;20042;-76
2024/04/12 05:46:49;;;;;;;8.50;6.90;;;;;;;16.05;100.00;102965.66;5690551;26;20472;-75
2024/04/12 05:49:22;;;;;;;7.38;6.57;;;;;;;16.05;100.00;102963.84;5686445;26;19998;-74
2024/04/12 05:51:55;;;;;;;9.55;6.97;;;;;;;16.08;100.00;102965.44;5677937;26;20035;-75
2024/04/12 05:54:39;;;;;;;7.78;6.97;;;;;;;16.06;100.00;102948.81;5686585;26;21403;-76
2024/04/12 05:57:11;;;;;;;9.05;7.60;;;;;;;16.16;100.00;102962.22;5690755;26;20041;-75
2024/04/12 05:59:43;;;;;;;8.77;6.80;;;;;;;16.16;100.00;102951.63;5651722;26;19998;-74
2024/04/12 06:02:17;;;;;;;8.07;6.82;;;;;;;16.19;100.00;102954.91;5678020;26;20541;-74
2024/04/12 06:04:50;;;;;;;8.30;7.03;;;;;;;16.20;100.00;102953.94;5687316;26;20099;-76
2024/04/12 06:07:22;;;;;;;9.25;6.75;;;;;;;16.26;100.00;102947.34;5686816;26;20495;-76
2024/04/12 06:09:54;;;;;;;9.30;6.95;;;;;;;16.24;100.00;102938.69;5684872;26;20014;-76
2024/04/12 06:12:33;;;;;;;8.23;7.30;;;;;;;16.25;100.00;102940.34;5684274;26;20003;-73
2024/04/12 06:15:05;;;;;;;9.10;6.53;;;;;;;16.33;100.00;102951.22;5681726;26;19999;-74
2024/04/12 06:17:40;;;;;;;8.38;7.57;;;;;;;16.42;100.00;102947.03;5684182;26;20148;-76
2024/04/12 06:20:12;;;;;;;8.00;7.07;;;;;;;16.32;100.00;102940.75;5686227;26;20112;-77
2024/04/12 06:22:44;;;;;;;7.95;6.95;;;;;;;16.39;100.00;102957.84;5681147;26;20066;-74
2024/04/12 06:25:16;;;;;;;8.88;7.65;;;;;;;16.37;100.00;102951.84;5680874;26;20006;-76
2024/04/12 06:27:49;;;;;;;9.40;7.72;;;;;;;16.43;100.00;102946.06;5653890;26;20734;-76
2024/04/12 06:30:24;;;;;;;8.70;7.32;;;;;;;16.50;100.00;102956.06;5681726;26;20442;-76
2024/04/12 06:32:59;;;;;;;10.15;7.40;;;;;;;16.50;100.00;102969.28;5650919;26;20058;-75
2024/04/12 06:35:32;;;;;;;8.85;7.38;;;;;;;16.47;100.00;102961.56;5655999;26;20371;-73
2024/04/12 06:38:08;;;;;;;10.27;7.45;;;;;;;16.51;100.00;102960.38;5679057;26;20017;-76
2024/04/12 06:40:44;;;;;;;9.30;7.35;;;;;;;16.57;100.00;102966.19;5681469;26;19998;-75
2024/04/12 06:43:16;;;;;;;9.07;7.22;;;;;;;16.58;100.00;102958.13;5677278;26;20262;-75
2024/04/12 06:46:11;;;;;;;9.30;7.38;;;;;;;16.88;100.00;102968.16;5682392;26;20016;-74
2024/04/12 06:48:43;;;;;;;10.98;7.68;;;;;;;16.70;100.00;102961.63;5680009;26;19999;-76
2024/04/12 06:51:16;;;;;;;9.38;7.40;;;;;;;16.80;100.00;102967.94;5640903;26;20059;-76
2024/04/12 06:53:48;;;;;;;14.02;8.85;;;;;;;16.88;100.00;102965.53;5683438;26;20021;-76
2024/04/12 06:56:22;;;;;;;11.30;7.80;;;;;;;16.84;100.00;102955.28;5685099;26;20001;-75
2024/04/12 06:58:54;;;;;;;10.00;7.72;;;;;;;16.87;100.00;102963.84;5677202;26;20347;-77
2024/04/12 07:01:26;;;;;;;8.75;7.20;;;;;;;17.00;100.00;102963.72;5655329;26;20031;-73
2024/04/12 07:04:05;;;;;;;9.20;7.40;;;;;;;16.99;100.00;102962.03;5689150;26;20014;-77
2024/04/12 07:06:37;;;;;;;10.10;7.55;;;;;;;17.05;100.00;102974.81;5630011;26;19998;-74
2024/04/12 07:09:09;;;;;;;8.57;7.38;;;;;;;17.09;100.00;102964.81;5679349;26;20006;-75
2024/04/12 07:11:41;;;;;;;8.65;7.30;;;;;;;17.13;100.00;102968.91;5643647;26;20034;-76
2024/04/12 07:14:15;;;;;;;9.80;7.45;;;;;;;17.11;100.00;102962.88;5679108;26;20027;-76
2024/04/12 07:16:47;;;;;;;10.55;7.07;;;;;;;17.23;100.00;102978.63;5682685;26;20002;-75
2024/04/12 07:19:23;;;;;;;10.23;7.43;;;;;;;17.22;100.00;102974.31;5682217;26;20026;-76
2024/04/12 07:21:55;;;;;;;11.35;7.90;;;;;;;17.24;100.00;102976.84;5646196;26;20042;-73
2024/04/12 07:24:27;;;;;;;10.73;7.82;;;;;;;17.26;100.00;102978.38;5646473;26;20009;-77
2024/04/12 07:27:01;;;;;;;10.60;7.90;;;;;;;17.32;100.00;102978.88;5680960;26;20006;-76
2024/04/12 07:29:33;;;;;;;9.15;7.47;;;;;;;17.33;100.00;102985.88;5685134;26;20002;-74
2024/04/12 07:32:07;;;;;;;9.77;7.20;;;;;;;17.35;100.00;102978.63;5659292;26;20058;-76
2024/04/12 07:34:48;;;;;;;9.10;7.75;;;;;;;17.36;100.00;102985.63;5689326;26;20019;-76
2024/04/12 07:37:27;;;;;;;10.13;7.30;;;;;;;17.42;100.00;102982.47;5671193;26;20536;-75
2024/04/12 07:40:15;;;;;;;11.30;7.65;;;;;;;17.46;100.00;102995.38;5642941;26;20009;-76
2024/04/12 07:42:48;;;;;;;9.63;8.07;;;;;;;17.46;100.00;102992.72;5681607;26;20038;-74
2024/04/12 07:45:25;;;;;;;9.65;7.78;;;;;;;17.60;100.00;102994.25;5681415;26;20830;-74
2024/04/12 07:48:11;;;;;;;11.65;7.88;;;;;;;17.50;100.00;102983.56;5635330;26;20027;-75
2024/04/12 07:50:43;;;;;;;9.77;7.68;;;;;;;17.54;100.00;102986.81;5658725;26;19998;-75
2024/04/12 07:53:21;;;;;;;9.50;7.35;;;;;;;17.56;100.00;102978.72;5673627;26;20004;-76
2024/04/12 07:56:07;;;;;;;11.57;7.75;;;;;;;17.60;100.00;102986.28;5647346;26;20500;-75
2024/04/12 07:58:42;;;;;;;10.45;7.80;;;;;;;17.62;100.00;102979.06;5672708;26;20054;-76
2024/04/12 08:01:17;;;;;;;8.90;7.45;;;;;;;17.74;100.00;102986.03;5676888;26;20013;-77
2024/04/12 08:04:05;;;;;;;9.98;7.95;;;;;;;17.76;100.00;102977.97;5647189;26;20047;-74
2024/04/12 08:06:37;;;;;;;9.73;7.78;;;;;;;17.84;100.00;102975.56;5640373;26;19999;-76
2024/04/12 08:12:14;;;;;;;8.40;7.53;;;;;;;18.04;100.00;102970.41;5676234;26;20027;-74
2024/04/12 08:14:53;;;;;;;10.02;7.72;;;;;;;18.06;100.00;102964.00;5677340;26;20022;-76
2024/04/12 08:17:39;;;;;;;11.52;7.50;;;;;;;18.24;100.00;102967.75;5683551;26;20524;-75
2024/04/12 08:20:14;;;;;;;9.02;7.20;;;;;;;18.32;100.00;102961.81;5633659;26;20021;-76
2024/04/12 08:22:46;;;;;;;10.38;7.25;;;;;;;18.32;100.00;102960.97;5672694;26;20016;-75
2024/04/12 08:25:18;;;;;;;9.52;7.53;;;;;;;18.43;100.00;102964.41;5678514;26;20054;-74
2024/04/12 08:27:54;;;;;;;9.68;7.78;;;;;;;18.52;100.00;102980.50;5663183;26;20042;-75
2024/04/12 08:30:28;;;;;;;10.70;7.32;;;;;;;18.55;100.00;102975.78;5677101;26;19998;-77
2024/04/12 08:33:02;;;;;;;10.98;7.28;;;;;;;18.53;100.00;102972.44;5690710;26;20039;-75
2024/04/12 08:35:36;;;;;;;9.52;6.90;;;;;;;18.66;100.00;102988.16;5639457;26;19998;-75
2024/04/12 08:38:12;;;;;;;9.93;6.97;;;;;;;18.71;100.00;102984.19;5671397;26;20024;-76
2024/04/12 08:40:44;;;;;;;8.25;6.78;;;;;;;18.80;100.00;102989.66;5680233;26;21884;-76
2024/04/12 08:43:19;;;;;;;10.48;7.25;;;;;;;18.91;100.00;102987.75;5652276;26;20013;-77
2024/04/12 08:45:58;;;;;;;8.82;6.47;;;;;;;18.88;100.00;102997.81;5653955;26;20041;-74
2024/04/12 08:48:31;;;;;;;8.55;6.40;;;;;;;19.02;100.00;102997.47;5677203;26;20013;-76
2024/04/12 08:51:08;;;;;;;9.50;7.05;;;;;;;19.10;100.00;102999.47;5681681;26;20033;-77
2024/04/12 08:53:44;;;;;;;8.40;6.03;;;;;;;19.09;100.00;102993.31;5682485;26;20041;-76
2024/04/12 08:56:17;;;;;;;9.45;6.13;;;;;;;19.17;100.00;102985.50;5647264;26;20010;-76
2024/04/12 08:58:52;;;;;;;;;;;;;;;20.08;100.00;102982.75;5688809;26;20049;-77
2024/04/12 09:01:26;;;;;;;10.80;6.60;;;;;;;19.41;100.00;102979.00;5689302;26;19924;-75
2024/04/12 09:04:04;;;;;;;9.68;6.75;;;;;;;19.56;100.00;102972.31;5672729;26;20025;-75
2024/04/12 09:06:37;;;;;;;9.50;5.80;;;;;;;19.65;100.00;102982.13;5669026;26;19999;-75
2024/04/12 09:09:13;;;;;;;7.50;5.97;;;;;;;19.74;100.00;102984.97;5675827;26;20022;-76
2024/04/12 09:11:45;;;;;;;7.10;5.32;;;;;;;19.73;100.00;102988.59;5650528;26;20427;-77
2024/04/12 09:14:20;;;;;;;9.05;5.55;;;;;;;19.85;100.00;102976.84;5683145;26;20026;-77
2024/04/12 09:17:00;;;;;;;7.82;4.55;;;;;;;19.89;100.00;102981.75;5686588;26;20011;-77
2024/04/12 09:19:38;;;;;;;8.63;5.28;;;;;;;19.97;100.00;102975.75;5684642;26;20047;-75
2024/04/12 09:22:14;;;;;;;6.68;5.00;;;;;;;20.18;100.00;102978.22;5684487;26;20786;-78
2024/04/12 09:24:48;;;;;;;8.02;4.55;;;;;;;20.18;100.00;102984.41;5681433;26;20045;-77
2024/04/12 09:27:33;;;;;;;6.97;4.40;;;;;;;20.37;100.00;102988.84;5681837;26;20010;-77
2024/04/12 09:33:16;;;;;;;7.20;3.88;;;;;;;20.70;99.68;102984.06;5680866;26;20006;-75
2024/04/12 09:35:52;;;;;;;7.10;4.55;;;;;;;20.73;97.66;102970.47;5675420;26;19998;-77
2024/04/12 09:38:27;;;;;;;6.85;4.07;;;;;;;20.83;96.08;102994.38;5689236;26;20030;-77
2024/04/12 09:41:12;;;;;;;5.93;3.45;;;;;;;20.81;94.55;102967.06;5682645;26;20042;-78
2024/04/12 09:43:47;;;;;;;5.03;3.85;;;;;;;20.94;90.50;102972.06;5650220;26;20027;-76
2024/04/12 09:46:32;;;;;;;6.20;4.05;;;;;;;21.01;91.37;102970.47;5684793;26;20706;-74
2024/04/12 10:37:56;;;;;;;5.63;4.28;;;;;;;22.10;75.63;102964.16;5685790;26;20003;-75
2024/04/12 10:40:28;;;;;;;7.03;3.95;;;;;;;22.20;72.98;102958.75;5685530;26;20042;-76
2024/04/12 10:43:00;;;;;;;9.60;4.53;;;;;;;22.31;69.82;102958.50;5675659;26;20002;-77
2024/04/12 10:45:36;;;;;;;7.28;3.72;;;;;;;22.25;68.00;102953.78;5690002;26;20022;-74
2024/04/12 10:48:08;;;;;;;7.40;4.28;;;;;;;22.24;67.35;102956.63;5691831;26;20062;-76
2024/04/12 10:50:43;;;;;;;8.40;4.10;;;;;;;22.34;67.68;102963.53;5690816;26;20018;-75
2024/04/12 10:53:17;;;;;;;9.60;4.40;;;;;;;22.42;70.05;102960.06;5692538;26;20250;-77
2024/04/12 10:55:52;;;;;;;7.72;3.58;;;;;;;22.44;67.49;102943.91;5689488;26;20026;-76
2024/04/12 10:58:28;;;;;;;6.40;3.72;;;;;;;22.52;67.40;102958.13;5686400;26;20039;-77
2024/04/12 11:01:05;;;;;;;6.43;3.58;;;;;;;22.62;68.64;102954.53;5684603;26;20034;-77
2024/04/12 11:03:38;;;;;;;6.07;4.03;;;;;;;22.42;66.12;102946.72;5651225;26;20002;-77
2024/04/12 11:06:19;;;;;;;;;;;;;;;23.37;65.07;102947.47;5682062;26;20031;-75
2024/04/12 11:08:51;;;;;;;6.15;3.15;;;;;;;22.63;66.94;102948.19;5677904;26;19962;-74
2024/04/12 11:11:26;;;;;;;6.78;3.38;;;;;;;22.79;65.73;102958.94;5690453;26;20066;-76
2024/04/12 11:13:59;;;;;;;8.68;3.65;;;;;;;22.84;63.92;102956.63;5684388;26;20038;-77
2024/04/12 11:31:14;;;;;;;6.15;3.60;;;;;;;22.91;61.85;102943.47;5684020;26;20038;-77
2024/04/12 11:33:51;;;;;;;5.57;3.65;;;;;;;23.00;60.09;102930.03;5686056;26;20347;-75
2024/04/12 11:36:26;;;;;;;6.15;3.95;;;;;;;23.05;60.97;102930.34;5684386;26;20507;-77
2024/04/12 11:38:58;;;;;;;5.88;3.97;;;;;;;23.09;61.41;102924.69;5680460;26;20013;-77
2024/04/12 11:41:30;;;;;;;7.05;3.05;;;;;;;23.12;60.91;102922.53;5651134;26;19995;-76
2024/04/12 11:44:05;;;;;;;5.18;3.22;;;;;;;23.13;59.18;102934.91;5675464;26;20013;-75
2024/04/12 11:46:38;;;;;;;8.32;4.13;;;;;;;23.02;58.90;102929.84;5678672;26;20062;-75
2024/04/12 11:49:13;;;;;;;6.22;3.50;;;;;;;23.14;59.98;102923.19;5683112;26;20012;-77
2024/04/12 11:51:48;;;;;;;5.88;3.47;;;;;;;22.97;58.59;102919.63;5685718;26;20003;-78
2024/04/12 11:54:22;;;;;;;7.18;3.70;;;;;;;23.01;59.84;102923.66;5655079;26;20380;-77
2024/04/12 11:56:54;;;;;;;7.13;3.60;;;;;;;22.99;58.59;102916.78;5682881;26;20006;-76
2024/04/12 11:59:30;;;;;;;7.25;3.25;;;;;;;23.17;60.05;102917.53;5683542;26;20002;-75
2024/04/12 12:02:04;;;;;;;4.97;3.03;;;;;;;23.11;55.80;102917.34;5685509;26;20054;-76
2024/04/12 12:04:36;;;;;;;7.70;3.85;;;;;;;23.10;56.11;102919.16;5678785;26;20017;-75
2024/04/12 12:07:11;;;;;;;9.57;4.30;;;;;;;23.10;56.80;102916.50;5686383;26;20044;-77
2024/04/12 12:09:43;;;;;;;5.40;3.60;;;;;;;23.24;55.53;102915.88;5687867;26;20034;-76
2024/04/12 12:12:16;;;;;;;6.80;3.33;;;;;;;23.34;55.16;102913.06;5687510;26;20383;-77
2024/04/12 12:14:51;;;;;;;5.32;3.20;;;;;;;23.42;55.28;102923.78;5681807;26;20008;-76
2024/04/12 12:17:23;;;;;;;8.35;3.38;;;;;;;23.46;56.16;102909.06;5686490;26;20621;-77
2024/04/12 12:19:57;;;;;;;4.80;3.22;;;;;;;23.71;55.77;102906.44;5688642;26;20095;-77
2024/04/12 12:22:30;;;;;;;8.68;3.00;;;;;;;23.77;55.08;102920.00;5688294;26;20033;-76
2024/04/12 12:25:07;;;;;;;6.57;3.30;;;;;;;23.76;55.75;102894.22;5685760;26;20016;-75
2024/04/12 12:27:39;;;;;;;5.45;3.00;;;;;;;23.77;53.99;102905.78;5687633;26;20499;-77
2024/04/12 12:30:14;;;;;;;7.88;3.17;;;;;;;23.78;54.29;102892.22;5682112;26;20047;-75
2024/04/12 12:32:46;;;;;;;5.50;3.40;;;;;;;23.92;53.58;102900.59;5689821;26;20723;-76
2024/04/12 12:35:24;;;;;;;6.70;3.40;;;;;;;23.91;54.80;102891.72;5688260;26;20058;-77
2024/04/12 12:37:58;;;;;;;5.30;3.20;;;;;;;24.00;54.34;102898.72;5689129;26;20926;-75
2024/04/12 12:40:30;;;;;;;6.57;3.53;;;;;;;24.23;54.75;102900.69;5683446;26;19998;-77
2024/04/12 12:43:04;;;;;;;5.53;3.40;;;;;;;24.31;53.58;102894.47;5652954;26;20006;-75
2024/04/12 12:45:36;;;;;;;7.03;3.45;;;;;;;24.51;54.40;102885.94;5655786;26;20022;-74
2024/04/12 12:48:21;;;;;;;5.07;3.38;;;;;;;24.65;53.14;102889.72;5688199;26;20038;-77
2024/04/12 12:50:54;;;;;;;5.78;3.28;;;;;;;24.37;52.33;102886.59;5688726;26;20002;-76
2024/04/12 12:53:30;;;;;;;5.18;3.20;;;;;;;24.33;52.50;102895.16;5685700;26;20508;-74
2024/04/12 12:56:06;;;;;;;6.43;3.95;;;;;;;24.14;52.69;102891.03;5652991;26;20043;-74
2024/04/12 12:58:38;;;;;;;6.28;3.75;;;;;;;23.90;52.59;102879.31;5651087;26;20049;-76
2024/04/12 13:01:10;;;;;;;10.05;4.35;;;;;;;23.72;52.85;102873.34;5673739;26;20014;-77
2024/04/12 13:03:44;;;;;;;6.25;3.85;;;;;;;24.02;53.90;102882.50;5693085;26;20072;-78
2024/04/12 13:06:21;;;;;;;5.82;3.50;;;;;;;24.13;53.67;102860.72;5696736;26;20772;-75